Time;durP1;ratioP1;P1;durP2;ratioP2;P2;SDS_P1;SDS_P2;PMS_P1;PMS_P2;Temp;Humidity;BMP_temperature;BMP_pressure;BME280_temperature;BME280_humidity;BME280_pressure;Samples;Min_cycle;Max_cycle;Signal;HPM_P1;HPM_P2
2022/04/05 00:02:09;;;;;;;21.23;12.63;;;;;;;;;;5119715;28;20239;-77
2022/04/05 00:04:37;;;;;;;22.20;13.67;;;;;;;;;;5121238;28;20742;-77
2022/04/05 00:07:04;;;;;;;20.87;11.73;;;;;;;;;;5121027;28;20299;-77
2022/04/05 00:09:32;;;;;;;17.93;11.33;;;;;;;;;;5121137;28;20636;-77
2022/04/05 00:12:01;;;;;;;14.97;10.77;;;;;;;;;;5121008;28;20624;-77
2022/04/05 00:14:30;;;;;;;25.70;12.93;;;;;;;;;;5121653;28;20225;-77
2022/04/05 00:16:58;;;;;;;36.87;17.13;;;;;;;;;;5120904;28;20320;-77
2022/04/05 00:19:27;;;;;;;23.03;11.73;;;;;;;;;;5113939;28;20284;-77
2022/04/05 00:21:55;;;;;;;22.07;11.53;;;;;;;;;;5121098;28;20232;-77
2022/04/05 00:24:23;;;;;;;15.03;10.80;;;;;;;;;;5120938;28;20233;-77
2022/04/05 00:26:51;;;;;;;21.93;14.20;;;;;;;;;;5118896;28;20618;-76
2022/04/05 00:29:22;;;;;;;22.40;14.30;;;;;;;;;;5120927;28;20648;-78
2022/04/05 00:31:52;;;;;;;19.67;13.57;;;;;;;;;;5121134;28;20201;-78
2022/04/05 00:34:24;;;;;;;16.23;11.83;;;;;;;;;;5120069;28;20295;-77
2022/04/05 00:36:53;;;;;;;17.33;10.47;;;;;;;;;;5120686;28;20220;-77
2022/04/05 00:39:21;;;;;;;23.50;14.50;;;;;;;;;;5120476;28;20304;-76
2022/04/05 00:41:49;;;;;;;18.80;11.83;;;;;;;;;;5120560;28;20235;-74
2022/04/05 00:44:17;;;;;;;15.80;9.80;;;;;;;;;;5120323;28;20240;-74
2022/04/05 00:46:46;;;;;;;12.90;9.43;;;;;;;;;;5120271;28;20342;-74
2022/04/05 00:49:17;;;;;;;14.30;9.97;;;;;;;;;;5120247;28;20236;-74
2022/04/05 00:51:45;;;;;;;16.50;9.23;;;;;;;;;;5117834;28;20220;-74
2022/04/05 00:54:13;;;;;;;15.07;10.40;;;;;;;;;;5120269;28;20284;-74
2022/04/05 00:56:42;;;;;;;15.00;10.90;;;;;;;;;;5120278;28;20224;-73
2022/04/05 00:59:10;;;;;;;15.40;10.50;;;;;;;;;;5120417;28;20216;-73
2022/04/05 01:01:39;;;;;;;16.03;10.60;;;;;;;;;;5119694;28;20249;-74
2022/04/05 01:04:08;;;;;;;16.80;10.43;;;;;;;;;;5120228;28;20201;-75
2022/04/05 01:06:39;;;;;;;17.27;10.40;;;;;;;;;;5118361;28;20213;-75
2022/04/05 01:09:09;;;;;;;14.13;9.80;;;;;;;;;;5119457;28;20239;-75
2022/04/05 01:11:37;;;;;;;13.30;9.80;;;;;;;;;;5117438;28;20254;-75
2022/04/05 01:14:05;;;;;;;13.17;8.83;;;;;;;;;;5119789;28;20347;-75
2022/04/05 01:16:35;;;;;;;14.63;8.97;;;;;;;;;;5119267;28;20274;-75
2022/04/05 01:19:03;;;;;;;12.37;9.33;;;;;;;;;;5118008;28;20495;-75
2022/04/05 01:21:31;;;;;;;13.93;9.20;;;;;;;;;;5119431;28;20201;-75
2022/04/05 01:24:07;;;;;;;10.67;7.87;;;;;;;;;;5116804;28;20611;-75
2022/04/05 01:26:39;;;;;;;13.57;8.80;;;;;;;;;;5119119;28;20217;-75
2022/04/05 01:29:07;;;;;;;16.17;8.37;;;;;;;;;;5117554;28;20506;-75
2022/04/05 01:31:39;;;;;;;12.57;8.60;;;;;;;;;;5117256;28;20446;-75
2022/04/05 01:34:07;;;;;;;14.93;8.90;;;;;;;;;;5110809;28;20240;-75
2022/04/05 01:36:40;;;;;;;11.87;8.33;;;;;;;;;;5115000;28;20262;-75
2022/04/05 01:39:10;;;;;;;12.57;7.87;;;;;;;;;;5116128;28;20474;-75
2022/04/05 01:41:38;;;;;;;12.03;8.03;;;;;;;;;;5120226;28;20447;-75
2022/04/05 01:44:06;;;;;;;12.50;8.23;;;;;;;;;;5118975;28;21001;-75
2022/04/05 01:46:34;;;;;;;15.00;8.67;;;;;;;;;;5119335;28;20303;-75
2022/04/05 01:49:05;;;;;;;11.73;9.03;;;;;;;;;;5118704;28;20442;-75
2022/04/05 01:51:35;;;;;;;10.73;7.63;;;;;;;;;;5116966;28;20220;-75
2022/04/05 01:54:05;;;;;;;12.80;8.47;;;;;;;;;;5118549;28;20510;-75
2022/04/05 01:56:35;;;;;;;12.23;8.27;;;;;;;;;;5116967;28;20523;-75
2022/04/05 01:59:03;;;;;;;10.17;7.37;;;;;;;;;;5118497;28;20478;-75
2022/04/05 02:01:31;;;;;;;11.13;8.27;;;;;;;;;;5115889;28;20515;-75
2022/04/05 02:03:59;;;;;;;9.97;7.77;;;;;;;;;;5118342;28;20507;-75
2022/04/05 02:06:28;;;;;;;12.50;8.33;;;;;;;;;;5119113;28;20815;-75
2022/04/05 02:08:56;;;;;;;12.83;8.20;;;;;;;;;;5115290;28;20489;-75
2022/04/05 02:11:24;;;;;;;16.30;8.00;;;;;;;;;;5118461;28;21004;-75
2022/04/05 02:13:53;;;;;;;13.57;9.03;;;;;;;;;;5118323;28;20529;-75
2022/04/05 02:16:21;;;;;;;12.50;8.23;;;;;;;;;;5111179;28;21023;-75
2022/04/05 02:18:49;;;;;;;11.90;8.63;;;;;;;;;;5109608;28;20552;-75
2022/04/05 02:21:17;;;;;;;10.70;8.20;;;;;;;;;;5118347;28;20482;-75
2022/04/05 02:23:45;;;;;;;14.20;8.53;;;;;;;;;;5117883;28;20201;-75
2022/04/05 02:26:13;;;;;;;17.60;8.73;;;;;;;;;;5116614;28;20470;-75
2022/04/05 02:28:42;;;;;;;12.80;9.00;;;;;;;;;;5118989;28;20450;-75
2022/04/05 02:31:11;;;;;;;12.43;9.07;;;;;;;;;;5118567;28;20499;-75
2022/04/05 02:33:40;;;;;;;11.27;8.70;;;;;;;;;;5118721;28;20447;-75
2022/04/05 02:36:08;;;;;;;14.03;9.50;;;;;;;;;;5118050;28;20467;-75
2022/04/05 02:38:36;;;;;;;13.70;9.60;;;;;;;;;;5117866;28;20592;-75
2022/04/05 02:41:06;;;;;;;14.27;9.50;;;;;;;;;;5117725;28;20474;-75
2022/04/05 02:43:34;;;;;;;12.47;8.80;;;;;;;;;;5111595;28;20870;-75
2022/04/05 02:46:03;;;;;;;13.17;8.33;;;;;;;;;;5118434;28;20502;-76
2022/04/05 02:48:32;;;;;;;13.10;8.87;;;;;;;;;;5118122;28;20443;-76
2022/04/05 02:51:00;;;;;;;14.53;9.10;;;;;;;;;;5118334;28;20933;-76
2022/04/05 02:53:28;;;;;;;13.53;9.27;;;;;;;;;;5117993;27;20484;-76
2022/04/05 02:55:56;;;;;;;13.27;9.33;;;;;;;;;;5118290;28;20554;-76
2022/04/05 02:58:25;;;;;;;11.50;8.50;;;;;;;;;;5118004;28;20220;-76
2022/04/05 03:00:53;;;;;;;13.50;9.00;;;;;;;;;;5117986;28;21055;-76
2022/04/05 03:03:21;;;;;;;14.07;9.20;;;;;;;;;;5117801;28;20542;-76
2022/04/05 03:05:51;;;;;;;11.97;8.30;;;;;;;;;;5118338;28;20463;-76
2022/04/05 03:08:19;;;;;;;12.53;7.90;;;;;;;;;;5117726;28;20438;-76
2022/04/05 03:10:47;;;;;;;11.10;8.73;;;;;;;;;;5118183;28;20485;-76
2022/04/05 03:13:15;;;;;;;9.73;7.63;;;;;;;;;;5118265;28;20534;-76
2022/04/05 03:15:43;;;;;;;11.17;7.83;;;;;;;;;;5109971;28;20534;-76
2022/04/05 03:18:11;;;;;;;10.80;7.80;;;;;;;;;;5117714;28;20476;-76
2022/04/05 03:20:39;;;;;;;11.67;6.90;;;;;;;;;;5118049;28;20530;-76
2022/04/05 03:23:09;;;;;;;10.07;7.73;;;;;;;;;;5118041;28;20529;-76
2022/04/05 03:25:37;;;;;;;10.57;7.43;;;;;;;;;;5117644;28;20486;-76
2022/04/05 03:28:05;;;;;;;11.40;7.17;;;;;;;;;;5117839;28;20477;-76
2022/04/05 03:30:34;;;;;;;12.83;8.03;;;;;;;;;;5117836;28;20471;-76
2022/04/05 03:33:01;;;;;;;10.70;7.77;;;;;;;;;;5117559;28;21020;-76
2022/04/05 03:35:29;;;;;;;12.70;8.27;;;;;;;;;;5117209;28;20549;-76
2022/04/05 03:37:59;;;;;;;10.67;8.47;;;;;;;;;;5117705;28;20478;-76
2022/04/05 03:40:28;;;;;;;10.53;7.70;;;;;;;;;;5117506;28;20474;-76
2022/04/05 03:42:56;;;;;;;11.73;8.33;;;;;;;;;;5117630;28;20478;-77
2022/04/05 03:45:25;;;;;;;13.10;8.13;;;;;;;;;;5117713;28;20478;-76
2022/04/05 03:47:54;;;;;;;10.07;7.70;;;;;;;;;;5109562;28;20447;-76
2022/04/05 03:50:22;;;;;;;12.37;8.30;;;;;;;;;;5117393;28;20482;-76
2022/04/05 03:52:50;;;;;;;11.83;8.33;;;;;;;;;;5117531;28;20470;-76
2022/04/05 03:55:18;;;;;;;10.60;7.53;;;;;;;;;;5117155;28;20501;-76
2022/04/05 03:57:47;;;;;;;11.83;8.87;;;;;;;;;;5117516;28;20474;-76
2022/04/05 04:00:16;;;;;;;10.63;7.33;;;;;;;;;;5117396;28;20474;-76
2022/04/05 04:02:44;;;;;;;12.10;8.13;;;;;;;;;;5117245;28;20529;-76
2022/04/05 04:05:16;;;;;;;12.87;9.10;;;;;;;;;;5117203;28;20965;-76
2022/04/05 04:07:44;;;;;;;13.57;8.60;;;;;;;;;;5117077;28;20447;-76
2022/04/05 04:10:12;;;;;;;12.53;8.07;;;;;;;;;;5111588;28;20525;-76
2022/04/05 04:12:40;;;;;;;18.47;9.40;;;;;;;;;;5109311;28;20526;-76
2022/04/05 04:15:10;;;;;;;15.17;9.20;;;;;;;;;;5117382;28;20525;-75
2022/04/05 04:17:38;;;;;;;13.47;8.67;;;;;;;;;;5117283;28;20530;-76
2022/04/05 04:20:06;;;;;;;11.93;9.23;;;;;;;;;;5116913;28;20506;-76
2022/04/05 04:22:34;;;;;;;14.57;10.50;;;;;;;;;;5117195;28;20478;-76
2022/04/05 04:25:02;;;;;;;11.73;8.83;;;;;;;;;;5116391;28;20478;-76
2022/04/05 04:27:30;;;;;;;16.83;10.90;;;;;;;;;;5117110;28;20526;-76
2022/04/05 04:29:58;;;;;;;17.87;10.17;;;;;;;;;;5117246;28;20506;-75
2022/04/05 04:32:28;;;;;;;15.10;10.27;;;;;;;;;;5117337;28;20485;-76
2022/04/05 04:34:56;;;;;;;19.50;10.43;;;;;;;;;;5116901;28;20443;-76
2022/04/05 04:37:24;;;;;;;15.07;9.97;;;;;;;;;;5117100;28;20478;-78
2022/04/05 04:39:52;;;;;;;15.67;10.83;;;;;;;;;;5116652;28;20502;-75
2022/04/05 04:42:20;;;;;;;16.63;10.53;;;;;;;;;;5117061;28;20485;-73
2022/04/05 04:44:48;;;;;;;17.37;10.80;;;;;;;;;;5115792;28;20957;-72
2022/04/05 04:47:17;;;;;;;17.33;11.70;;;;;;;;;;5116512;28;21052;-75
2022/04/05 04:49:46;;;;;;;16.73;11.57;;;;;;;;;;5120180;28;20470;-74
2022/04/05 04:52:19;;;;;;;17.33;11.83;;;;;;;;;;5119641;28;20445;-75
2022/04/05 04:54:47;;;;;;;20.53;11.40;;;;;;;;;;5119852;28;20531;-74
2022/04/05 04:57:15;;;;;;;16.27;10.73;;;;;;;;;;5119621;28;20538;-74
2022/04/05 04:59:43;;;;;;;15.50;9.70;;;;;;;;;;5119696;28;20510;-72
2022/04/05 05:02:11;;;;;;;17.97;11.30;;;;;;;;;;5119733;28;20470;-70
2022/04/05 05:04:40;;;;;;;16.80;11.10;;;;;;;;;;5119481;28;20462;-75
2022/04/05 05:07:15;;;;;;;18.00;11.43;;;;;;;;;;5119667;28;20806;-75
2022/04/05 05:09:43;;;;;;;19.23;11.87;;;;;;;;;;5118912;28;20473;-72
2022/04/05 05:12:11;;;;;;;20.37;12.60;;;;;;;;;;5119014;28;20525;-73
2022/04/05 05:14:40;;;;;;;19.17;11.70;;;;;;;;;;5119769;28;20447;-73
2022/04/05 05:17:08;;;;;;;16.93;11.23;;;;;;;;;;5120272;28;20558;-73
2022/04/05 05:19:36;;;;;;;21.33;11.97;;;;;;;;;;5120163;28;20478;-73
2022/04/05 05:22:04;;;;;;;16.33;11.03;;;;;;;;;;5120077;28;20530;-72
2022/04/05 05:24:34;;;;;;;16.63;10.90;;;;;;;;;;5119857;28;20866;-74
2022/04/05 05:27:02;;;;;;;16.33;10.93;;;;;;;;;;5119651;28;20459;-73
2022/04/05 05:29:30;;;;;;;14.27;11.17;;;;;;;;;;5119945;28;20466;-72
2022/04/05 05:31:58;;;;;;;16.90;11.27;;;;;;;;;;5110573;28;20479;-66
2022/04/05 05:34:26;;;;;;;16.70;11.43;;;;;;;;;;5112931;28;20886;-72
2022/04/05 05:36:54;;;;;;;21.80;11.40;;;;;;;;;;5108962;28;20487;-73
2022/04/05 05:39:22;;;;;;;19.23;10.43;;;;;;;;;;5106271;28;20509;-73
2022/04/05 05:41:51;;;;;;;19.40;13.60;;;;;;;;;;5119958;28;20481;-73
2022/04/05 05:44:20;;;;;;;19.83;12.57;;;;;;;;;;5116242;28;20475;-75
2022/04/05 05:46:48;;;;;;;20.37;11.73;;;;;;;;;;5110031;28;20547;-75
2022/04/05 05:49:15;;;;;;;17.40;11.70;;;;;;;;;;5111238;28;20541;-78
2022/04/05 05:51:43;;;;;;;17.53;11.20;;;;;;;;;;5116626;28;20529;-79
2022/04/05 05:54:11;;;;;;;21.43;12.50;;;;;;;;;;5118361;28;20504;-75
2022/04/05 05:56:39;;;;;;;19.37;11.93;;;;;;;;;;5118666;28;20546;-75
2022/04/05 05:59:09;;;;;;;16.80;12.10;;;;;;;;;;5117108;28;20513;-73
2022/04/05 06:01:38;;;;;;;21.13;13.20;;;;;;;;;;5116083;28;20886;-73
2022/04/05 06:04:06;;;;;;;15.53;11.47;;;;;;;;;;5117742;28;20447;-74
2022/04/05 06:06:34;;;;;;;17.97;12.13;;;;;;;;;;5118127;28;20531;-74
2022/04/05 06:09:02;;;;;;;20.67;12.47;;;;;;;;;;5117944;28;20964;-74
2022/04/05 06:11:30;;;;;;;19.47;11.73;;;;;;;;;;5116104;28;20496;-73
2022/04/05 06:13:58;;;;;;;18.07;12.20;;;;;;;;;;5113815;28;20814;-74
2022/04/05 06:16:28;;;;;;;17.00;12.40;;;;;;;;;;5117529;28;20539;-74
2022/04/05 06:19:00;;;;;;;18.10;13.23;;;;;;;;;;5117426;28;20504;-74
2022/04/05 06:21:28;;;;;;;20.67;12.80;;;;;;;;;;5118137;28;20434;-74
2022/04/05 06:23:56;;;;;;;18.00;12.03;;;;;;;;;;5117669;28;20545;-77
2022/04/05 06:26:24;;;;;;;19.77;12.43;;;;;;;;;;5118049;28;20471;-73
2022/04/05 06:28:54;;;;;;;16.87;11.97;;;;;;;;;;5118004;28;20521;-76
2022/04/05 06:31:22;;;;;;;14.80;11.20;;;;;;;;;;5118734;28;20482;-76
2022/04/05 06:33:52;;;;;;;23.80;13.17;;;;;;;;;;5118968;28;20439;-74
2022/04/05 06:36:20;;;;;;;19.43;12.40;;;;;;;;;;5117507;28;20920;-74
2022/04/05 06:38:48;;;;;;;16.40;12.27;;;;;;;;;;5117457;28;20478;-74
2022/04/05 06:41:22;;;;;;;19.80;13.17;;;;;;;;;;5115776;28;20556;-73
2022/04/05 06:43:50;;;;;;;21.33;13.57;;;;;;;;;;5109957;28;20455;-75
2022/04/05 06:46:18;;;;;;;23.07;12.73;;;;;;;;;;5113256;28;20532;-74
2022/04/05 06:48:46;;;;;;;17.37;12.53;;;;;;;;;;5114232;28;20871;-74
2022/04/05 06:51:16;;;;;;;21.83;13.43;;;;;;;;;;5118481;27;20481;-74
2022/04/05 06:53:44;;;;;;;22.70;13.77;;;;;;;;;;5118670;27;20945;-74
2022/04/05 06:56:12;;;;;;;23.87;12.60;;;;;;;;;;5124419;27;20466;-76
2022/04/05 06:58:40;;;;;;;23.53;12.77;;;;;;;;;;5116485;27;20964;-74
2022/04/05 07:01:09;;;;;;;18.17;12.97;;;;;;;;;;5115307;27;20486;-75
2022/04/05 07:03:37;;;;;;;19.97;13.80;;;;;;;;;;5118994;27;20530;-74
2022/04/05 07:06:05;;;;;;;16.50;12.17;;;;;;;;;;5120353;27;20477;-74
2022/04/05 07:08:34;;;;;;;19.47;12.87;;;;;;;;;;5109510;28;20450;-74
2022/04/05 07:11:02;;;;;;;24.77;14.03;;;;;;;;;;5126388;27;20443;-74
2022/04/05 07:13:31;;;;;;;19.83;12.80;;;;;;;;;;5121369;27;20548;-74
2022/04/05 07:15:59;;;;;;;21.07;14.10;;;;;;;;;;5125998;27;20908;-74
2022/04/05 07:18:27;;;;;;;20.17;12.27;;;;;;;;;;5117937;27;20442;-74
2022/04/05 07:20:55;;;;;;;20.50;13.17;;;;;;;;;;5116974;28;20473;-74
2022/04/05 07:23:23;;;;;;;18.30;13.10;;;;;;;;;;5123115;27;20881;-74
2022/04/05 07:25:53;;;;;;;18.67;12.93;;;;;;;;;;5120036;27;20470;-74
2022/04/05 07:28:21;;;;;;;21.47;12.53;;;;;;;;;;5123271;27;20447;-74
2022/04/05 07:30:49;;;;;;;21.40;12.53;;;;;;;;;;5127542;27;20438;-74
2022/04/05 07:33:17;;;;;;;23.60;13.50;;;;;;;;;;5128848;27;20447;-74
2022/04/05 07:35:46;;;;;;;27.40;13.07;;;;;;;;;;5127733;27;20877;-74
2022/04/05 07:38:14;;;;;;;21.50;14.47;;;;;;;;;;5117103;28;20933;-75
2022/04/05 07:40:52;;;;;;;20.63;13.70;;;;;;;;;;5120682;27;21116;-74
2022/04/05 07:43:22;;;;;;;22.70;13.67;;;;;;;;;;5119008;27;20442;-74
2022/04/05 07:45:51;;;;;;;26.67;13.63;;;;;;;;;;5119948;27;21004;-74
2022/04/05 07:48:19;;;;;;;30.53;14.23;;;;;;;;;;5118767;28;20453;-74
2022/04/05 07:50:47;;;;;;;16.57;12.47;;;;;;;;;;5111538;28;20443;-74
2022/04/05 07:53:15;;;;;;;19.40;12.87;;;;;;;;;;5109915;28;20792;-74
2022/04/05 07:55:44;;;;;;;21.83;13.23;;;;;;;;;;5115263;28;20505;-74
2022/04/05 07:58:12;;;;;;;21.57;12.57;;;;;;;;;;5125457;28;20449;-74
2022/04/05 08:00:41;;;;;;;20.53;13.53;;;;;;;;;;5124024;28;20504;-74
2022/04/05 08:03:09;;;;;;;19.80;12.57;;;;;;;;;;5121903;28;20442;-72
2022/04/05 08:05:37;;;;;;;18.67;12.97;;;;;;;;;;5120366;28;20501;-74
2022/04/05 08:08:05;;;;;;;24.27;13.97;;;;;;;;;;5119746;28;20448;-75
2022/04/05 08:10:33;;;;;;;22.17;13.53;;;;;;;;;;5114708;28;20450;-74
2022/04/05 08:13:01;;;;;;;18.43;12.27;;;;;;;;;;5109020;28;20832;-74
2022/04/05 08:15:29;;;;;;;19.60;13.43;;;;;;;;;;5122235;28;20216;-75
2022/04/05 08:17:59;;;;;;;23.17;13.47;;;;;;;;;;5127837;28;20215;-74
2022/04/05 08:20:27;;;;;;;23.93;13.67;;;;;;;;;;5119437;28;20252;-75
2022/04/05 08:22:55;;;;;;;25.37;13.43;;;;;;;;;;5119401;27;20284;-75
2022/04/05 08:25:23;;;;;;;18.27;13.23;;;;;;;;;;5129582;27;20308;-75
2022/04/05 08:27:51;;;;;;;20.30;14.33;;;;;;;;;;5121134;28;20560;-75
2022/04/05 08:30:20;;;;;;;24.63;14.67;;;;;;;;;;5129900;27;20279;-75
2022/04/05 08:32:48;;;;;;;19.83;14.40;;;;;;;;;;5132856;27;20196;-74
2022/04/05 08:35:19;;;;;;;25.53;13.97;;;;;;;;;;5124063;27;20283;-74
2022/04/05 08:37:47;;;;;;;20.07;14.43;;;;;;;;;;5129986;27;20288;-74
2022/04/05 08:40:16;;;;;;;24.33;14.63;;;;;;;;;;5132184;27;20271;-74
2022/04/05 08:42:45;;;;;;;19.70;14.40;;;;;;;;;;5119411;28;21002;-75
2022/04/05 08:45:14;;;;;;;30.93;14.20;;;;;;;;;;5131116;27;20212;-75
2022/04/05 08:47:46;;;;;;;20.77;13.60;;;;;;;;;;5128484;27;20660;-75
2022/04/05 08:50:14;;;;;;;22.87;14.13;;;;;;;;;;5130336;27;20201;-75
2022/04/05 08:52:44;;;;;;;24.97;13.67;;;;;;;;;;5117579;27;20197;-75
2022/04/05 08:55:12;;;;;;;20.73;13.07;;;;;;;;;;5129631;27;20201;-75
2022/04/05 08:57:41;;;;;;;20.10;13.90;;;;;;;;;;5129591;27;20201;-75
2022/04/05 09:00:10;;;;;;;21.33;14.13;;;;;;;;;;5129773;27;20770;-74
2022/04/05 09:02:38;;;;;;;23.43;13.33;;;;;;;;;;5124325;27;20231;-68
2022/04/05 09:05:07;;;;;;;18.10;13.47;;;;;;;;;;5125905;27;20213;-70
2022/04/05 09:07:36;;;;;;;16.63;11.70;;;;;;;;;;5121723;27;20207;-74
2022/04/05 09:10:09;;;;;;;22.50;12.57;;;;;;;;;;5115271;28;20291;-74
2022/04/05 09:12:41;;;;;;;15.87;10.80;;;;;;;;;;5117924;28;20203;-73
2022/04/05 09:15:10;;;;;;;14.20;9.80;;;;;;;;;;5122086;27;20201;-74
2022/04/05 09:17:41;;;;;;;15.83;10.80;;;;;;;;;;5121066;27;20193;-74
2022/04/05 09:20:10;;;;;;;17.67;11.17;;;;;;;;;;5120307;27;20608;-74
2022/04/05 09:22:39;;;;;;;15.00;9.37;;;;;;;;;;5119030;28;20255;-74
2022/04/05 09:25:08;;;;;;;13.93;9.73;;;;;;;;;;5121040;27;20201;-74
2022/04/05 09:27:47;;;;;;;17.63;10.57;;;;;;;;;;5119515;28;20276;-74
2022/04/05 09:30:18;;;;;;;16.03;9.93;;;;;;;;;;5125468;27;20200;-75
2022/04/05 09:32:48;;;;;;;14.70;10.63;;;;;;;;;;5119517;28;20648;-74
2022/04/05 09:35:18;;;;;;;16.67;10.27;;;;;;;;;;5119492;28;20303;-74
2022/04/05 09:37:46;;;;;;;15.67;10.53;;;;;;;;;;5119146;28;20200;-74
2022/04/05 09:40:15;;;;;;;11.77;8.83;;;;;;;;;;5132944;27;20201;-74
2022/04/05 09:42:59;;;;;;;10.90;8.50;;;;;;;;;;5119681;28;20217;-74
2022/04/05 09:45:44;;;;;;;7.07;6.20;;;;;;;;;;5116877;27;20302;-75
2022/04/05 09:48:13;;;;;;;9.13;5.33;;;;;;;;;;5120517;27;20211;-74
2022/04/05 09:50:58;;;;;;;9.93;6.60;;;;;;;;;;5125248;27;20249;-74
2022/04/05 09:53:26;;;;;;;12.03;7.17;;;;;;;;;;5127836;27;20215;-75
2022/04/05 09:56:05;;;;;;;13.87;8.47;;;;;;;;;;5125746;27;21159;-74
2022/04/05 09:58:33;;;;;;;9.77;5.37;;;;;;;;;;5128938;27;20201;-75
2022/04/05 10:01:07;;;;;;;6.90;4.87;;;;;;;;;;5114229;27;20648;-74
2022/04/05 10:03:36;;;;;;;8.60;3.70;;;;;;;;;;5122936;27;20232;-74
2022/04/05 10:06:04;;;;;;;3.97;3.60;;;;;;;;;;5132991;27;20228;-74
2022/04/05 10:08:33;;;;;;;3.93;3.27;;;;;;;;;;5126890;27;20273;-74
2022/04/05 10:11:02;;;;;;;4.17;3.47;;;;;;;;;;5125666;27;20566;-74
2022/04/05 10:13:30;;;;;;;5.40;3.63;;;;;;;;;;5123649;27;20614;-74
2022/04/05 10:16:00;;;;;;;5.47;3.50;;;;;;;;;;5130951;27;20220;-74
2022/04/05 10:18:35;;;;;;;7.13;3.40;;;;;;;;;;5131184;27;20226;-75
2022/04/05 10:21:04;;;;;;;5.23;3.60;;;;;;;;;;5126468;27;20254;-74
2022/04/05 10:23:33;;;;;;;5.73;3.93;;;;;;;;;;5129373;27;20289;-74
2022/04/05 10:26:02;;;;;;;4.33;3.33;;;;;;;;;;5118756;28;20239;-74
2022/04/05 10:28:32;;;;;;;7.07;3.87;;;;;;;;;;5122095;27;20228;-74
2022/04/05 10:31:02;;;;;;;6.10;3.77;;;;;;;;;;5132604;27;20226;-74
2022/04/05 10:33:34;;;;;;;4.83;3.40;;;;;;;;;;5127820;27;20647;-74
2022/04/05 10:36:05;;;;;;;4.33;3.40;;;;;;;;;;5133256;27;20256;-74
2022/04/05 10:38:33;;;;;;;4.20;3.37;;;;;;;;;;5133908;27;20200;-74
2022/04/05 10:41:19;;;;;;;5.40;3.77;;;;;;;;;;5125993;27;20205;-74
2022/04/05 10:43:49;;;;;;;5.50;3.30;;;;;;;;;;5134645;27;20196;-74
2022/04/05 10:46:31;;;;;;;3.23;2.87;;;;;;;;;;5124418;27;20220;-74
2022/04/05 10:49:08;;;;;;;6.87;3.57;;;;;;;;;;5116880;27;20209;-75
2022/04/05 10:51:51;;;;;;;4.80;3.90;;;;;;;;;;5124286;27;20197;-74
2022/04/05 10:54:21;;;;;;;7.10;3.57;;;;;;;;;;5119956;27;20213;-74
2022/04/05 10:57:08;;;;;;;5.80;3.50;;;;;;;;;;5134811;27;20228;-74
2022/04/05 10:59:47;;;;;;;5.60;3.90;;;;;;;;;;5118048;28;20694;-74
2022/04/05 11:02:27;;;;;;;5.30;3.93;;;;;;;;;;5116905;27;20311;-73
2022/04/05 11:05:00;;;;;;;4.43;3.93;;;;;;;;;;5135615;27;20229;-68
2022/04/05 11:07:28;;;;;;;5.57;3.87;;;;;;;;;;5117543;27;20728;-70
2022/04/05 11:09:59;;;;;;;4.93;4.00;;;;;;;;;;5120210;27;20200;-69
2022/04/05 11:12:28;;;;;;;5.80;4.47;;;;;;;;;;5115635;28;20197;-69
2022/04/05 11:14:57;;;;;;;4.53;4.03;;;;;;;;;;5125769;27;20540;-69
2022/04/05 11:17:26;;;;;;;5.93;4.20;;;;;;;;;;5112668;28;20678;-69
2022/04/05 11:19:55;;;;;;;7.00;4.30;;;;;;;;;;5117175;27;20225;-69
2022/04/05 11:22:27;;;;;;;6.70;4.90;;;;;;;;;;5122514;27;20679;-70
2022/04/05 11:24:56;;;;;;;6.10;4.53;;;;;;;;;;5115120;28;20205;-69
2022/04/05 11:27:29;;;;;;;6.73;4.20;;;;;;;;;;5118571;27;20200;-69
2022/04/05 11:30:15;;;;;;;5.43;4.07;;;;;;;;;;5118976;27;20288;-69
2022/04/05 11:32:58;;;;;;;7.63;4.60;;;;;;;;;;5115211;27;20200;-70
2022/04/05 11:35:27;;;;;;;5.10;3.43;;;;;;;;;;5117914;28;20591;-71
2022/04/05 11:37:55;;;;;;;5.60;3.83;;;;;;;;;;5114047;28;20228;-70
2022/04/05 11:40:24;;;;;;;6.20;3.20;;;;;;;;;;5112438;27;20206;-71
2022/04/05 11:42:53;;;;;;;3.40;2.43;;;;;;;;;;5115510;27;20280;-72
2022/04/05 11:45:22;;;;;;;5.50;2.80;;;;;;;;;;5135123;27;20743;-70
2022/04/05 11:47:52;;;;;;;3.33;3.00;;;;;;;;;;5125706;28;20386;-71
2022/04/05 11:50:20;;;;;;;4.97;2.87;;;;;;;;;;5122946;27;21903;-73
2022/04/05 11:52:48;;;;;;;4.43;2.90;;;;;;;;;;5124368;28;20197;-74
2022/04/05 11:58:10;;;;;;;4.13;3.70;;;;;;;;;;5109797;28;20209;-75
2022/04/05 12:00:51;;;;;;;4.47;3.30;;;;;;;;;;5108180;27;20225;-73
2022/04/05 12:03:19;;;;;;;6.70;4.67;;;;;;;;;;5110384;27;20269;-73
2022/04/05 12:05:47;;;;;;;5.13;4.63;;;;;;;;;;5110651;28;20221;-74
2022/04/05 12:08:16;;;;;;;5.83;5.33;;;;;;;;;;5112678;27;20224;-73
2022/04/05 12:10:45;;;;;;;6.40;5.17;;;;;;;;;;5114123;27;20200;-74
2022/04/05 12:13:14;;;;;;;6.80;5.30;;;;;;;;;;5117420;27;20192;-74
2022/04/05 12:15:43;;;;;;;6.73;4.20;;;;;;;;;;5113531;27;20235;-75
2022/04/05 12:18:17;;;;;;;5.63;4.47;;;;;;;;;;5117657;28;20200;-76
2022/04/05 12:20:56;;;;;;;4.57;3.90;;;;;;;;;;5111867;28;20200;-74
2022/04/05 12:23:24;;;;;;;5.43;3.90;;;;;;;;;;5115759;27;20303;-76
2022/04/05 12:26:06;;;;;;;3.97;3.00;;;;;;;;;;5123702;27;20299;-72
2022/04/05 12:28:35;;;;;;;5.63;2.83;;;;;;;;;;5118688;27;20251;-71
2022/04/05 12:31:04;;;;;;;3.13;2.40;;;;;;;;;;5111319;27;20204;-72
2022/04/05 12:33:32;;;;;;;4.60;2.67;;;;;;;;;;5116973;27;20189;-73
2022/04/05 12:36:00;;;;;;;7.53;2.53;;;;;;;;;;5108397;28;20236;-73
2022/04/05 12:38:28;;;;;;;5.40;2.90;;;;;;;;;;5115846;27;20289;-74
2022/04/05 12:40:57;;;;;;;3.00;2.33;;;;;;;;;;5115342;27;20206;-73
2022/04/05 12:43:25;;;;;;;3.90;2.90;;;;;;;;;;5105919;28;20220;-73
2022/04/05 12:45:55;;;;;;;3.60;2.57;;;;;;;;;;5109152;28;20221;-73
2022/04/05 12:48:23;;;;;;;12.53;3.50;;;;;;;;;;5111138;27;20202;-73
2022/04/05 12:50:54;;;;;;;3.53;2.80;;;;;;;;;;5111043;27;20205;-74
2022/04/05 12:53:26;;;;;;;4.23;2.80;;;;;;;;;;5112686;28;20227;-73
2022/04/05 12:56:00;;;;;;;3.23;2.80;;;;;;;;;;5125204;27;20748;-72
2022/04/05 12:58:35;;;;;;;3.07;2.40;;;;;;;;;;5120147;28;20283;-72
2022/04/05 13:01:16;;;;;;;2.47;2.27;;;;;;;;;;5117908;28;20235;-71
2022/04/05 13:03:44;;;;;;;3.13;2.80;;;;;;;;;;5118032;28;20221;-75
2022/04/05 13:06:21;;;;;;;4.10;3.20;;;;;;;;;;5120187;28;20229;-75
2022/04/05 13:08:49;;;;;;;5.57;3.97;;;;;;;;;;5113774;28;20202;-75
2022/04/05 13:11:25;;;;;;;4.43;2.97;;;;;;;;;;5117125;28;20211;-75
2022/04/05 13:14:04;;;;;;;3.07;2.73;;;;;;;;;;5120199;28;20197;-75
2022/04/05 13:16:33;;;;;;;4.20;2.53;;;;;;;;;;5120353;28;20217;-75
2022/04/05 13:19:11;;;;;;;2.97;2.67;;;;;;;;;;5120313;28;20212;-75
2022/04/05 13:21:43;;;;;;;2.37;2.03;;;;;;;;;;5120491;28;20276;-75
2022/04/05 13:24:11;;;;;;;5.23;3.20;;;;;;;;;;5117719;28;20781;-75
2022/04/05 13:26:40;;;;;;;5.03;3.23;;;;;;;;;;5120254;28;20216;-75
2022/04/05 13:29:09;;;;;;;5.57;3.17;;;;;;;;;;5119002;28;20197;-75
2022/04/05 13:31:42;;;;;;;4.27;3.13;;;;;;;;;;5120294;28;20256;-76
2022/04/05 13:34:11;;;;;;;5.20;2.77;;;;;;;;;;5112196;28;20203;-75
2022/04/05 13:36:39;;;;;;;4.93;2.80;;;;;;;;;;5120037;28;20230;-76
2022/04/05 13:39:07;;;;;;;2.93;2.63;;;;;;;;;;5125434;27;20209;-79
2022/04/05 13:41:35;;;;;;;5.87;3.43;;;;;;;;;;5120186;28;20193;-69
2022/04/05 13:44:04;;;;;;;6.07;3.70;;;;;;;;;;5117595;28;20224;-69
2022/04/05 13:46:35;;;;;;;3.47;2.90;;;;;;;;;;5114253;28;20302;-71
2022/04/05 13:49:06;;;;;;;11.13;3.40;;;;;;;;;;5113726;27;20211;-73
2022/04/05 13:51:34;;;;;;;8.17;3.20;;;;;;;;;;5126406;27;20222;-73
2022/04/05 13:54:17;;;;;;;3.97;3.57;;;;;;;;;;5110596;28;20644;-73
2022/04/05 13:56:45;;;;;;;3.87;2.80;;;;;;;;;;5124727;27;20223;-73
2022/04/05 13:59:13;;;;;;;4.33;2.97;;;;;;;;;;5131113;27;20209;-73
2022/04/05 14:01:47;;;;;;;3.50;3.00;;;;;;;;;;5113745;28;20200;-73
2022/04/05 14:04:16;;;;;;;6.40;3.53;;;;;;;;;;5122015;27;20220;-73
2022/04/05 14:06:44;;;;;;;5.03;3.03;;;;;;;;;;5124878;27;20239;-72
2022/04/05 14:09:13;;;;;;;4.33;3.50;;;;;;;;;;5120012;27;20201;-73
2022/04/05 14:11:43;;;;;;;4.00;2.80;;;;;;;;;;5119263;28;20216;-73
2022/04/05 14:14:11;;;;;;;3.87;2.67;;;;;;;;;;5124830;27;20193;-73
2022/04/05 14:16:39;;;;;;;4.60;3.67;;;;;;;;;;5121601;27;20304;-73
2022/04/05 14:19:07;;;;;;;3.80;2.53;;;;;;;;;;5122955;27;20225;-72
2022/04/05 14:21:36;;;;;;;3.03;2.83;;;;;;;;;;5120435;28;20225;-71
2022/04/05 14:24:05;;;;;;;3.63;2.60;;;;;;;;;;5120057;27;20580;-74
2022/04/05 14:26:33;;;;;;;4.60;2.90;;;;;;;;;;5116374;27;20560;-73
2022/04/05 14:29:01;;;;;;;3.77;3.37;;;;;;;;;;5119140;27;20283;-74
2022/04/05 14:31:29;;;;;;;3.17;2.77;;;;;;;;;;5116084;28;20207;-74
2022/04/05 14:33:57;;;;;;;3.37;2.33;;;;;;;;;;5118424;28;20613;-79
2022/04/05 14:36:25;;;;;;;4.53;2.40;;;;;;;;;;5117782;28;20359;-75
2022/04/05 14:39:02;;;;;;;2.57;2.37;;;;;;;;;;5112730;28;20207;-75
2022/04/05 14:41:31;;;;;;;2.70;2.50;;;;;;;;;;5130267;27;20249;-76
2022/04/05 14:44:00;;;;;;;3.43;2.30;;;;;;;;;;5111449;27;20212;-75
2022/04/05 14:46:29;;;;;;;3.60;2.30;;;;;;;;;;5124902;27;20763;-73